Terminal Aerodrome Forecast
Issued by NWS Charleston, WV

Current Version | Previous Version | Graphics & Text | Print | Product List | Glossary On
Versions: 1 2 3 4 5 6 7 8 9 10 11 12 13 14 15 16 17 18 19 20 21 22 23 24 25
000
FTUS41 KRLX 310500
TAFEKN
TAF
KEKN 310540Z 3106/0106 00000KT P6SM FEW040
     FM311000 00000KT 5SM BR SCT080
     FM311300 00000KT P6SM BKN080
     FM312000 VRB03KT 6SM -SHRA OVC030
     FM312100 32004KT 5SM -SHRA BR OVC030
     FM010100 00000KT 3SM -SHRA BR OVC025
     FM010500 00000KT 3SM -RA BR BKN008 OVC015=

USA.gov is the U.S. government's official web portal to all federal, state and local government web resources and services.